sensor_id;sensor_type;location;lat;lon;timestamp;P1;durP1;ratioP1;P2;durP2;ratioP2
47481;SDS011;33219;47.410;9.730;2023-05-10T00:01:22;1.85;;;1.00;;
47481;SDS011;33219;47.410;9.730;2023-05-10T00:03:49;2.70;;;1.12;;
47481;SDS011;33219;47.410;9.730;2023-05-10T00:06:17;1.65;;;0.90;;
47481;SDS011;33219;47.410;9.730;2023-05-10T00:08:44;1.85;;;0.80;;
47481;SDS011;33219;47.410;9.730;2023-05-10T00:11:12;0.90;;;0.68;;
47481;SDS011;33219;47.410;9.730;2023-05-10T00:13:40;0.80;;;0.68;;
47481;SDS011;33219;47.410;9.730;2023-05-10T00:16:07;1.12;;;0.90;;
47481;SDS011;33219;47.410;9.730;2023-05-10T00:18:35;1.80;;;0.82;;
47481;SDS011;33219;47.410;9.730;2023-05-10T00:21:02;0.88;;;0.70;;
47481;SDS011;33219;47.410;9.730;2023-05-10T00:23:30;0.70;;;0.70;;
47481;SDS011;33219;47.410;9.730;2023-05-10T00:25:57;2.85;;;1.20;;
47481;SDS011;33219;47.410;9.730;2023-05-10T00:28:26;1.67;;;1.20;;
47481;SDS011;33219;47.410;9.730;2023-05-10T00:30:55;3.67;;;1.55;;
47481;SDS011;33219;47.410;9.730;2023-05-10T00:33:22;3.42;;;1.50;;
47481;SDS011;33219;47.410;9.730;2023-05-10T00:35:50;1.85;;;1.30;;
47481;SDS011;33219;47.410;9.730;2023-05-10T00:38:18;2.10;;;1.42;;
47481;SDS011;33219;47.410;9.730;2023-05-10T00:40:45;2.67;;;1.50;;
47481;SDS011;33219;47.410;9.730;2023-05-10T00:43:13;3.70;;;2.05;;
47481;SDS011;33219;47.410;9.730;2023-05-10T00:45:41;5.33;;;2.30;;
47481;SDS011;33219;47.410;9.730;2023-05-10T00:48:08;5.92;;;2.37;;
47481;SDS011;33219;47.410;9.730;2023-05-10T00:50:36;4.45;;;2.70;;
47481;SDS011;33219;47.410;9.730;2023-05-10T00:53:05;4.45;;;2.50;;
47481;SDS011;33219;47.410;9.730;2023-05-10T00:55:33;4.47;;;3.00;;
47481;SDS011;33219;47.410;9.730;2023-05-10T00:58:01;5.53;;;3.58;;
47481;SDS011;33219;47.410;9.730;2023-05-10T01:00:29;6.33;;;4.20;;
47481;SDS011;33219;47.410;9.730;2023-05-10T01:02:57;4.80;;;3.80;;
47481;SDS011;33219;47.410;9.730;2023-05-10T01:05:25;4.85;;;3.33;;
47481;SDS011;33219;47.410;9.730;2023-05-10T01:07:53;5.10;;;2.70;;
47481;SDS011;33219;47.410;9.730;2023-05-10T01:10:20;5.22;;;2.40;;
47481;SDS011;33219;47.410;9.730;2023-05-10T01:12:48;2.40;;;1.60;;
47481;SDS011;33219;47.410;9.730;2023-05-10T01:15:16;2.62;;;1.65;;
47481;SDS011;33219;47.410;9.730;2023-05-10T01:17:44;3.98;;;2.08;;
47481;SDS011;33219;47.410;9.730;2023-05-10T01:20:13;3.67;;;2.00;;
47481;SDS011;33219;47.410;9.730;2023-05-10T01:28:29;3.87;;;2.37;;
47481;SDS011;33219;47.410;9.730;2023-05-10T01:31:00;5.03;;;1.92;;
47481;SDS011;33219;47.410;9.730;2023-05-10T01:36:40;3.05;;;1.80;;
47481;SDS011;33219;47.410;9.730;2023-05-10T01:39:24;2.87;;;1.72;;
47481;SDS011;33219;47.410;9.730;2023-05-10T01:42:03;2.55;;;0.90;;
47481;SDS011;33219;47.410;9.730;2023-05-10T01:44:47;1.42;;;0.60;;
47481;SDS011;33219;47.410;9.730;2023-05-10T01:47:32;0.47;;;0.42;;
47481;SDS011;33219;47.410;9.730;2023-05-10T01:50:04;1.17;;;0.57;;
47481;SDS011;33219;47.410;9.730;2023-05-10T01:52:37;2.08;;;0.70;;
47481;SDS011;33219;47.410;9.730;2023-05-10T01:55:05;1.27;;;0.50;;
47481;SDS011;33219;47.410;9.730;2023-05-10T01:57:35;0.33;;;0.33;;
47481;SDS011;33219;47.410;9.730;2023-05-10T02:00:05;0.80;;;0.65;;
47481;SDS011;33219;47.410;9.730;2023-05-10T02:02:37;0.93;;;0.70;;
47481;SDS011;33219;47.410;9.730;2023-05-10T02:05:09;0.80;;;0.78;;
47481;SDS011;33219;47.410;9.730;2023-05-10T02:07:34;0.65;;;0.60;;
47481;SDS011;33219;47.410;9.730;2023-05-10T02:10:06;0.85;;;0.70;;
47481;SDS011;33219;47.410;9.730;2023-05-10T02:12:36;1.05;;;0.80;;
47481;SDS011;33219;47.410;9.730;2023-05-10T02:15:06;5.30;;;1.10;;
47481;SDS011;33219;47.410;9.730;2023-05-10T02:17:36;1.32;;;0.88;;
47481;SDS011;33219;47.410;9.730;2023-05-10T02:20:05;1.52;;;0.78;;
47481;SDS011;33219;47.410;9.730;2023-05-10T02:22:34;0.93;;;0.70;;
47481;SDS011;33219;47.410;9.730;2023-05-10T02:25:03;1.02;;;0.70;;
47481;SDS011;33219;47.410;9.730;2023-05-10T02:27:32;0.85;;;0.85;;
47481;SDS011;33219;47.410;9.730;2023-05-10T02:30:01;1.55;;;0.90;;
47481;SDS011;33219;47.410;9.730;2023-05-10T02:32:29;0.93;;;0.62;;
47481;SDS011;33219;47.410;9.730;2023-05-10T02:34:57;1.20;;;0.85;;
47481;SDS011;33219;47.410;9.730;2023-05-10T02:37:27;1.62;;;0.75;;
47481;SDS011;33219;47.410;9.730;2023-05-10T02:39:55;0.98;;;0.65;;
47481;SDS011;33219;47.410;9.730;2023-05-10T02:42:27;2.58;;;0.62;;
47481;SDS011;33219;47.410;9.730;2023-05-10T02:45:05;1.00;;;0.50;;
47481;SDS011;33219;47.410;9.730;2023-05-10T02:47:28;1.47;;;0.93;;
47481;SDS011;33219;47.410;9.730;2023-05-10T02:49:56;3.83;;;1.37;;
47481;SDS011;33219;47.410;9.730;2023-05-10T02:52:25;1.92;;;1.10;;
47481;SDS011;33219;47.410;9.730;2023-05-10T02:54:56;3.20;;;0.98;;
47481;SDS011;33219;47.410;9.730;2023-05-10T02:57:31;2.42;;;1.25;;
47481;SDS011;33219;47.410;9.730;2023-05-10T02:59:56;1.98;;;1.50;;
47481;SDS011;33219;47.410;9.730;2023-05-10T03:02:24;2.98;;;1.60;;
47481;SDS011;33219;47.410;9.730;2023-05-10T03:04:51;2.05;;;1.50;;
47481;SDS011;33219;47.410;9.730;2023-05-10T03:07:19;2.02;;;1.60;;
47481;SDS011;33219;47.410;9.730;2023-05-10T03:09:47;1.40;;;1.30;;
47481;SDS011;33219;47.410;9.730;2023-05-10T03:12:19;3.22;;;1.55;;
47481;SDS011;33219;47.410;9.730;2023-05-10T03:15:17;1.80;;;1.30;;
47481;SDS011;33219;47.410;9.730;2023-05-10T03:18:06;1.82;;;1.30;;
47481;SDS011;33219;47.410;9.730;2023-05-10T03:20:42;3.10;;;1.45;;
47481;SDS011;33219;47.410;9.730;2023-05-10T03:25:50;2.45;;;0.90;;
47481;SDS011;33219;47.410;9.730;2023-05-10T03:28:20;3.05;;;1.10;;
47481;SDS011;33219;47.410;9.730;2023-05-10T03:30:48;2.72;;;1.30;;
47481;SDS011;33219;47.410;9.730;2023-05-10T03:33:18;2.58;;;1.30;;
47481;SDS011;33219;47.410;9.730;2023-05-10T03:35:45;2.77;;;1.30;;
47481;SDS011;33219;47.410;9.730;2023-05-10T03:38:13;4.05;;;1.12;;
47481;SDS011;33219;47.410;9.730;2023-05-10T03:40:41;2.77;;;1.60;;
47481;SDS011;33219;47.410;9.730;2023-05-10T03:43:09;3.65;;;1.90;;
47481;SDS011;33219;47.410;9.730;2023-05-10T03:45:36;3.55;;;2.10;;
47481;SDS011;33219;47.410;9.730;2023-05-10T03:48:04;5.20;;;2.98;;
47481;SDS011;33219;47.410;9.730;2023-05-10T03:50:32;3.92;;;3.00;;
47481;SDS011;33219;47.410;9.730;2023-05-10T03:52:59;4.87;;;3.20;;
47481;SDS011;33219;47.410;9.730;2023-05-10T03:55:27;4.22;;;3.00;;
47481;SDS011;33219;47.410;9.730;2023-05-10T03:57:55;3.72;;;2.00;;
47481;SDS011;33219;47.410;9.730;2023-05-10T04:00:23;4.03;;;2.10;;
47481;SDS011;33219;47.410;9.730;2023-05-10T04:02:50;3.42;;;2.00;;
47481;SDS011;33219;47.410;9.730;2023-05-10T04:05:18;3.92;;;2.47;;
47481;SDS011;33219;47.410;9.730;2023-05-10T04:07:45;4.30;;;2.87;;
47481;SDS011;33219;47.410;9.730;2023-05-10T04:10:15;3.65;;;2.92;;
47481;SDS011;33219;47.410;9.730;2023-05-10T04:12:43;3.22;;;2.33;;
47481;SDS011;33219;47.410;9.730;2023-05-10T04:15:10;3.10;;;1.90;;
47481;SDS011;33219;47.410;9.730;2023-05-10T04:17:38;3.05;;;2.05;;
47481;SDS011;33219;47.410;9.730;2023-05-10T04:20:06;4.37;;;1.95;;
47481;SDS011;33219;47.410;9.730;2023-05-10T04:22:34;2.62;;;1.60;;
47481;SDS011;33219;47.410;9.730;2023-05-10T04:25:01;2.30;;;1.70;;
47481;SDS011;33219;47.410;9.730;2023-05-10T04:27:29;5.55;;;1.92;;
47481;SDS011;33219;47.410;9.730;2023-05-10T04:29:57;3.92;;;2.70;;
47481;SDS011;33219;47.410;9.730;2023-05-10T04:32:24;4.12;;;2.00;;
47481;SDS011;33219;47.410;9.730;2023-05-10T04:34:52;3.75;;;1.82;;
47481;SDS011;33219;47.410;9.730;2023-05-10T04:37:19;3.90;;;1.60;;
47481;SDS011;33219;47.410;9.730;2023-05-10T04:39:49;1.72;;;1.30;;
47481;SDS011;33219;47.410;9.730;2023-05-10T04:42:16;2.60;;;1.60;;
47481;SDS011;33219;47.410;9.730;2023-05-10T04:44:44;4.83;;;1.75;;
47481;SDS011;33219;47.410;9.730;2023-05-10T04:47:11;3.62;;;1.95;;
47481;SDS011;33219;47.410;9.730;2023-05-10T04:49:39;3.90;;;1.92;;
47481;SDS011;33219;47.410;9.730;2023-05-10T04:52:06;4.28;;;2.70;;
47481;SDS011;33219;47.410;9.730;2023-05-10T04:54:34;3.83;;;3.42;;
47481;SDS011;33219;47.410;9.730;2023-05-10T04:57:01;3.70;;;3.00;;
47481;SDS011;33219;47.410;9.730;2023-05-10T04:59:29;4.28;;;2.98;;
47481;SDS011;33219;47.410;9.730;2023-05-10T05:01:56;2.65;;;2.45;;
47481;SDS011;33219;47.410;9.730;2023-05-10T05:04:24;3.02;;;2.10;;
47481;SDS011;33219;47.410;9.730;2023-05-10T05:06:51;4.37;;;1.90;;
47481;SDS011;33219;47.410;9.730;2023-05-10T05:09:27;5.03;;;1.98;;
47481;SDS011;33219;47.410;9.730;2023-05-10T05:11:51;2.83;;;1.60;;
47481;SDS011;33219;47.410;9.730;2023-05-10T05:14:18;2.62;;;1.90;;
47481;SDS011;33219;47.410;9.730;2023-05-10T05:16:48;4.28;;;2.10;;
47481;SDS011;33219;47.410;9.730;2023-05-10T05:19:19;3.77;;;2.80;;
47481;SDS011;33219;47.410;9.730;2023-05-10T05:21:46;4.78;;;3.30;;
47481;SDS011;33219;47.410;9.730;2023-05-10T05:24:13;4.00;;;3.02;;
47481;SDS011;33219;47.410;9.730;2023-05-10T05:26:47;5.33;;;3.67;;
47481;SDS011;33219;47.410;9.730;2023-05-10T05:29:18;4.17;;;2.70;;
47481;SDS011;33219;47.410;9.730;2023-05-10T05:31:57;4.12;;;2.47;;
47481;SDS011;33219;47.410;9.730;2023-05-10T05:34:31;5.67;;;2.80;;
47481;SDS011;33219;47.410;9.730;2023-05-10T06:03:49;4.50;;;2.00;;
47481;SDS011;33219;47.410;9.730;2023-05-10T06:25:40;4.70;;;1.87;;
47481;SDS011;33219;47.410;9.730;2023-05-10T06:28:51;3.08;;;2.27;;
47481;SDS011;33219;47.410;9.730;2023-05-10T06:31:41;5.45;;;3.87;;
47481;SDS011;33219;47.410;9.730;2023-05-10T06:37:15;6.87;;;4.50;;
47481;SDS011;33219;47.410;9.730;2023-05-10T06:39:52;8.15;;;3.92;;
47481;SDS011;33219;47.410;9.730;2023-05-10T06:42:31;10.20;;;4.33;;
47481;SDS011;33219;47.410;9.730;2023-05-10T06:45:02;6.87;;;3.98;;
47481;SDS011;33219;47.410;9.730;2023-05-10T06:47:42;8.33;;;5.05;;
47481;SDS011;33219;47.410;9.730;2023-05-10T06:50:21;11.40;;;5.12;;
47481;SDS011;33219;47.410;9.730;2023-05-10T06:53:06;7.78;;;3.62;;
47481;SDS011;33219;47.410;9.730;2023-05-10T06:55:44;9.90;;;4.53;;
47481;SDS011;33219;47.410;9.730;2023-05-10T06:58:30;7.00;;;4.47;;
47481;SDS011;33219;47.410;9.730;2023-05-10T07:01:17;7.25;;;4.20;;
47481;SDS011;33219;47.410;9.730;2023-05-10T07:03:54;3.77;;;3.00;;
47481;SDS011;33219;47.410;9.730;2023-05-10T07:06:35;3.55;;;2.80;;
47481;SDS011;33219;47.410;9.730;2023-05-10T07:09:57;6.78;;;3.30;;
47481;SDS011;33219;47.410;9.730;2023-05-10T07:12:50;5.80;;;3.00;;
47481;SDS011;33219;47.410;9.730;2023-05-10T07:25:22;3.83;;;2.80;;
47481;SDS011;33219;47.410;9.730;2023-05-10T07:28:12;3.80;;;2.90;;
47481;SDS011;33219;47.410;9.730;2023-05-10T07:31:24;4.40;;;3.33;;
47481;SDS011;33219;47.410;9.730;2023-05-10T07:34:10;4.22;;;2.10;;
47481;SDS011;33219;47.410;9.730;2023-05-10T07:37:17;2.35;;;1.80;;
47481;SDS011;33219;47.410;9.730;2023-05-10T08:02:14;4.72;;;1.42;;
47481;SDS011;33219;47.410;9.730;2023-05-10T08:04:55;3.60;;;1.30;;
47481;SDS011;33219;47.410;9.730;2023-05-10T08:07:54;1.60;;;1.27;;
47481;SDS011;33219;47.410;9.730;2023-05-10T08:16:32;3.37;;;1.50;;
47481;SDS011;33219;47.410;9.730;2023-05-10T08:22:37;4.65;;;1.60;;
47481;SDS011;33219;47.410;9.730;2023-05-10T08:25:12;3.22;;;1.40;;
47481;SDS011;33219;47.410;9.730;2023-05-10T08:31:10;2.87;;;1.77;;
47481;SDS011;33219;47.410;9.730;2023-05-10T08:37:20;3.75;;;2.77;;
47481;SDS011;33219;47.410;9.730;2023-05-10T08:45:36;2.65;;;1.70;;
47481;SDS011;33219;47.410;9.730;2023-05-10T08:48:15;3.27;;;1.80;;
47481;SDS011;33219;47.410;9.730;2023-05-10T09:09:11;3.85;;;1.52;;
47481;SDS011;33219;47.410;9.730;2023-05-10T09:12:08;3.47;;;1.95;;
47481;SDS011;33219;47.410;9.730;2023-05-10T09:14:49;3.55;;;1.60;;
47481;SDS011;33219;47.410;9.730;2023-05-10T09:17:28;2.40;;;1.32;;
47481;SDS011;33219;47.410;9.730;2023-05-10T09:20:04;2.98;;;1.70;;
47481;SDS011;33219;47.410;9.730;2023-05-10T09:32:50;2.15;;;1.20;;
47481;SDS011;33219;47.410;9.730;2023-05-10T09:35:16;2.25;;;1.20;;
47481;SDS011;33219;47.410;9.730;2023-05-10T09:37:52;3.05;;;1.40;;
47481;SDS011;33219;47.410;9.730;2023-05-10T09:40:40;3.55;;;1.27;;
47481;SDS011;33219;47.410;9.730;2023-05-10T09:43:18;1.77;;;1.30;;
47481;SDS011;33219;47.410;9.730;2023-05-10T09:45:57;7.80;;;4.42;;
47481;SDS011;33219;47.410;9.730;2023-05-10T09:48:44;8.35;;;4.62;;
47481;SDS011;33219;47.410;9.730;2023-05-10T09:54:15;3.02;;;1.45;;
47481;SDS011;33219;47.410;9.730;2023-05-10T09:56:58;3.42;;;2.02;;
47481;SDS011;33219;47.410;9.730;2023-05-10T09:59:54;8.55;;;4.92;;
47481;SDS011;33219;47.410;9.730;2023-05-10T10:02:42;5.28;;;3.02;;
47481;SDS011;33219;47.410;9.730;2023-05-10T10:08:17;3.60;;;2.12;;
47481;SDS011;33219;47.410;9.730;2023-05-10T10:10:53;3.12;;;1.98;;
47481;SDS011;33219;47.410;9.730;2023-05-10T10:13:32;4.80;;;1.70;;
47481;SDS011;33219;47.410;9.730;2023-05-10T10:16:08;1.62;;;1.25;;
47481;SDS011;33219;47.410;9.730;2023-05-10T10:18:56;4.35;;;1.65;;
47481;SDS011;33219;47.410;9.730;2023-05-10T10:21:37;2.12;;;1.10;;
47481;SDS011;33219;47.410;9.730;2023-05-10T10:24:17;1.55;;;0.90;;
47481;SDS011;33219;47.410;9.730;2023-05-10T10:27:19;0.98;;;0.68;;
47481;SDS011;33219;47.410;9.730;2023-05-10T10:30:09;1.45;;;1.00;;
47481;SDS011;33219;47.410;9.730;2023-05-10T10:36:01;1.42;;;0.82;;
47481;SDS011;33219;47.410;9.730;2023-05-10T10:41:39;4.40;;;1.47;;
47481;SDS011;33219;47.410;9.730;2023-05-10T10:44:24;2.08;;;1.10;;
47481;SDS011;33219;47.410;9.730;2023-05-10T10:50:05;2.22;;;0.72;;
47481;SDS011;33219;47.410;9.730;2023-05-10T10:55:09;1.85;;;0.70;;
47481;SDS011;33219;47.410;9.730;2023-05-10T11:00:30;1.90;;;0.90;;
47481;SDS011;33219;47.410;9.730;2023-05-10T11:03:11;1.50;;;0.90;;
47481;SDS011;33219;47.410;9.730;2023-05-10T11:05:47;1.62;;;0.93;;
47481;SDS011;33219;47.410;9.730;2023-05-10T11:08:21;2.52;;;0.88;;
47481;SDS011;33219;47.410;9.730;2023-05-10T11:11:04;2.30;;;1.10;;
47481;SDS011;33219;47.410;9.730;2023-05-10T11:13:50;3.05;;;1.20;;
47481;SDS011;33219;47.410;9.730;2023-05-10T11:16:23;1.10;;;0.98;;
47481;SDS011;33219;47.410;9.730;2023-05-10T11:18:56;1.87;;;0.90;;
47481;SDS011;33219;47.410;9.730;2023-05-10T11:21:31;1.75;;;0.90;;
47481;SDS011;33219;47.410;9.730;2023-05-10T11:24:02;1.57;;;1.00;;
47481;SDS011;33219;47.410;9.730;2023-05-10T11:26:34;4.25;;;1.17;;
47481;SDS011;33219;47.410;9.730;2023-05-10T11:31:45;1.92;;;1.10;;
47481;SDS011;33219;47.410;9.730;2023-05-10T11:34:23;2.95;;;1.40;;
47481;SDS011;33219;47.410;9.730;2023-05-10T11:36:53;2.30;;;1.00;;
47481;SDS011;33219;47.410;9.730;2023-05-10T11:39:25;1.90;;;1.10;;
47481;SDS011;33219;47.410;9.730;2023-05-10T11:41:54;4.25;;;1.17;;
47481;SDS011;33219;47.410;9.730;2023-05-10T11:44:22;2.65;;;1.00;;
47481;SDS011;33219;47.410;9.730;2023-05-10T11:46:50;4.35;;;1.20;;
47481;SDS011;33219;47.410;9.730;2023-05-10T11:49:19;3.20;;;0.98;;
47481;SDS011;33219;47.410;9.730;2023-05-10T11:51:49;1.92;;;0.90;;
47481;SDS011;33219;47.410;9.730;2023-05-10T11:54:17;1.90;;;0.98;;
47481;SDS011;33219;47.410;9.730;2023-05-10T11:56:44;2.62;;;1.12;;
47481;SDS011;33219;47.410;9.730;2023-05-10T11:59:13;3.72;;;1.42;;
47481;SDS011;33219;47.410;9.730;2023-05-10T12:01:41;2.75;;;1.62;;
47481;SDS011;33219;47.410;9.730;2023-05-10T12:04:10;3.30;;;1.20;;
47481;SDS011;33219;47.410;9.730;2023-05-10T12:06:39;2.50;;;1.02;;
47481;SDS011;33219;47.410;9.730;2023-05-10T12:09:08;2.80;;;1.10;;
47481;SDS011;33219;47.410;9.730;2023-05-10T12:11:36;3.33;;;1.05;;
47481;SDS011;33219;47.410;9.730;2023-05-10T12:14:06;3.72;;;1.10;;
47481;SDS011;33219;47.410;9.730;2023-05-10T12:16:35;1.70;;;1.00;;
47481;SDS011;33219;47.410;9.730;2023-05-10T12:19:03;1.55;;;0.72;;
47481;SDS011;33219;47.410;9.730;2023-05-10T12:21:31;1.15;;;0.82;;
47481;SDS011;33219;47.410;9.730;2023-05-10T12:23:59;1.72;;;1.00;;
47481;SDS011;33219;47.410;9.730;2023-05-10T12:26:31;2.20;;;1.02;;
47481;SDS011;33219;47.410;9.730;2023-05-10T12:31:50;2.30;;;0.90;;
47481;SDS011;33219;47.410;9.730;2023-05-10T12:34:22;2.95;;;1.10;;
47481;SDS011;33219;47.410;9.730;2023-05-10T12:36:55;3.20;;;1.10;;
47481;SDS011;33219;47.410;9.730;2023-05-10T12:39:23;1.87;;;0.98;;
47481;SDS011;33219;47.410;9.730;2023-05-10T12:41:51;1.87;;;1.10;;
47481;SDS011;33219;47.410;9.730;2023-05-10T12:44:19;1.55;;;1.20;;
47481;SDS011;33219;47.410;9.730;2023-05-10T12:46:47;1.95;;;1.10;;
47481;SDS011;33219;47.410;9.730;2023-05-10T12:49:15;3.95;;;1.30;;
47481;SDS011;33219;47.410;9.730;2023-05-10T12:51:44;2.12;;;1.30;;
47481;SDS011;33219;47.410;9.730;2023-05-10T12:54:12;2.77;;;1.30;;
47481;SDS011;33219;47.410;9.730;2023-05-10T12:56:39;4.55;;;1.45;;
47481;SDS011;33219;47.410;9.730;2023-05-10T12:59:08;1.95;;;1.47;;
47481;SDS011;33219;47.410;9.730;2023-05-10T13:01:36;3.08;;;1.85;;
47481;SDS011;33219;47.410;9.730;2023-05-10T13:04:04;3.98;;;1.37;;
47481;SDS011;33219;47.410;9.730;2023-05-10T13:06:31;2.83;;;1.45;;
47481;SDS011;33219;47.410;9.730;2023-05-10T13:09:00;2.55;;;1.30;;
47481;SDS011;33219;47.410;9.730;2023-05-10T13:11:28;2.65;;;1.32;;
47481;SDS011;33219;47.410;9.730;2023-05-10T13:13:56;2.65;;;1.30;;
47481;SDS011;33219;47.410;9.730;2023-05-10T13:16:23;3.17;;;1.60;;
47481;SDS011;33219;47.410;9.730;2023-05-10T13:18:51;3.60;;;1.60;;
47481;SDS011;33219;47.410;9.730;2023-05-10T13:21:23;3.17;;;1.60;;
47481;SDS011;33219;47.410;9.730;2023-05-10T13:23:54;2.92;;;1.30;;
47481;SDS011;33219;47.410;9.730;2023-05-10T13:26:22;2.60;;;1.50;;
47481;SDS011;33219;47.410;9.730;2023-05-10T13:28:49;2.27;;;1.27;;
47481;SDS011;33219;47.410;9.730;2023-05-10T13:31:17;3.55;;;1.62;;
47481;SDS011;33219;47.410;9.730;2023-05-10T13:33:44;4.20;;;1.82;;
47481;SDS011;33219;47.410;9.730;2023-05-10T13:36:12;3.15;;;1.70;;
47481;SDS011;33219;47.410;9.730;2023-05-10T13:38:40;2.77;;;1.70;;
47481;SDS011;33219;47.410;9.730;2023-05-10T13:41:07;3.87;;;1.80;;
47481;SDS011;33219;47.410;9.730;2023-05-10T13:43:35;2.75;;;1.70;;
47481;SDS011;33219;47.410;9.730;2023-05-10T13:46:02;2.62;;;1.20;;
47481;SDS011;33219;47.410;9.730;2023-05-10T13:48:30;3.90;;;1.70;;
47481;SDS011;33219;47.410;9.730;2023-05-10T13:50:58;2.08;;;1.35;;
47481;SDS011;33219;47.410;9.730;2023-05-10T13:53:25;3.77;;;1.70;;
47481;SDS011;33219;47.410;9.730;2023-05-10T13:55:53;4.17;;;1.80;;
47481;SDS011;33219;47.410;9.730;2023-05-10T13:58:20;5.00;;;1.67;;
47481;SDS011;33219;47.410;9.730;2023-05-10T14:00:49;2.90;;;1.70;;
47481;SDS011;33219;47.410;9.730;2023-05-10T14:03:16;4.00;;;1.98;;
47481;SDS011;33219;47.410;9.730;2023-05-10T14:05:44;4.28;;;1.85;;
47481;SDS011;33219;47.410;9.730;2023-05-10T14:08:13;3.50;;;1.65;;
47481;SDS011;33219;47.410;9.730;2023-05-10T14:10:40;2.87;;;1.45;;
47481;SDS011;33219;47.410;9.730;2023-05-10T14:13:08;2.08;;;1.67;;
47481;SDS011;33219;47.410;9.730;2023-05-10T14:15:35;2.70;;;1.50;;
47481;SDS011;33219;47.410;9.730;2023-05-10T14:18:03;2.70;;;1.57;;
47481;SDS011;33219;47.410;9.730;2023-05-10T14:20:31;4.33;;;1.40;;
47481;SDS011;33219;47.410;9.730;2023-05-10T14:22:59;1.80;;;1.17;;
47481;SDS011;33219;47.410;9.730;2023-05-10T14:25:27;2.95;;;1.45;;
47481;SDS011;33219;47.410;9.730;2023-05-10T14:27:57;3.45;;;1.65;;
47481;SDS011;33219;47.410;9.730;2023-05-10T14:30:25;3.35;;;1.87;;
47481;SDS011;33219;47.410;9.730;2023-05-10T14:32:52;2.95;;;1.70;;
47481;SDS011;33219;47.410;9.730;2023-05-10T14:35:20;2.60;;;1.60;;
47481;SDS011;33219;47.410;9.730;2023-05-10T14:37:47;2.55;;;1.72;;
47481;SDS011;33219;47.410;9.730;2023-05-10T14:40:15;2.72;;;1.60;;
47481;SDS011;33219;47.410;9.730;2023-05-10T14:42:43;3.02;;;1.30;;
47481;SDS011;33219;47.410;9.730;2023-05-10T14:45:10;1.22;;;1.12;;
47481;SDS011;33219;47.410;9.730;2023-05-10T14:47:38;3.30;;;1.60;;
47481;SDS011;33219;47.410;9.730;2023-05-10T14:50:06;3.27;;;1.80;;
47481;SDS011;33219;47.410;9.730;2023-05-10T14:52:34;3.20;;;1.80;;
47481;SDS011;33219;47.410;9.730;2023-05-10T14:55:02;4.30;;;2.25;;
47481;SDS011;33219;47.410;9.730;2023-05-10T14:57:29;4.60;;;2.42;;
47481;SDS011;33219;47.410;9.730;2023-05-10T14:59:58;3.98;;;2.05;;
47481;SDS011;33219;47.410;9.730;2023-05-10T15:02:25;4.28;;;2.20;;
47481;SDS011;33219;47.410;9.730;2023-05-10T15:04:53;5.03;;;3.17;;
47481;SDS011;33219;47.410;9.730;2023-05-10T15:07:20;5.05;;;2.20;;
47481;SDS011;33219;47.410;9.730;2023-05-10T15:09:48;3.27;;;1.70;;
47481;SDS011;33219;47.410;9.730;2023-05-10T15:12:17;4.10;;;2.10;;
47481;SDS011;33219;47.410;9.730;2023-05-10T15:14:45;2.72;;;1.30;;
47481;SDS011;33219;47.410;9.730;2023-05-10T15:17:13;1.70;;;1.10;;
47481;SDS011;33219;47.410;9.730;2023-05-10T15:19:42;1.35;;;0.90;;
47481;SDS011;33219;47.410;9.730;2023-05-10T15:22:09;4.05;;;1.57;;
47481;SDS011;33219;47.410;9.730;2023-05-10T15:24:37;1.70;;;1.20;;
47481;SDS011;33219;47.410;9.730;2023-05-10T15:27:04;3.00;;;1.52;;
47481;SDS011;33219;47.410;9.730;2023-05-10T15:29:32;2.27;;;1.35;;
47481;SDS011;33219;47.410;9.730;2023-05-10T15:32:00;2.20;;;1.30;;
47481;SDS011;33219;47.410;9.730;2023-05-10T15:34:28;2.90;;;1.50;;
47481;SDS011;33219;47.410;9.730;2023-05-10T15:36:57;2.10;;;1.30;;
47481;SDS011;33219;47.410;9.730;2023-05-10T15:39:24;2.35;;;1.20;;
47481;SDS011;33219;47.410;9.730;2023-05-10T15:41:52;2.42;;;1.10;;
47481;SDS011;33219;47.410;9.730;2023-05-10T15:44:19;1.40;;;0.95;;
47481;SDS011;33219;47.410;9.730;2023-05-10T15:46:47;2.92;;;1.00;;
47481;SDS011;33219;47.410;9.730;2023-05-10T15:49:15;1.37;;;1.05;;
47481;SDS011;33219;47.410;9.730;2023-05-10T15:51:43;1.60;;;1.00;;
47481;SDS011;33219;47.410;9.730;2023-05-10T15:54:10;1.85;;;1.12;;
47481;SDS011;33219;47.410;9.730;2023-05-10T15:56:38;2.42;;;1.02;;
47481;SDS011;33219;47.410;9.730;2023-05-10T15:59:06;5.03;;;1.30;;
47481;SDS011;33219;47.410;9.730;2023-05-10T16:01:35;1.35;;;1.05;;
47481;SDS011;33219;47.410;9.730;2023-05-10T16:04:02;3.02;;;1.32;;
47481;SDS011;33219;47.410;9.730;2023-05-10T16:06:30;3.92;;;1.50;;
47481;SDS011;33219;47.410;9.730;2023-05-10T16:08:58;2.75;;;1.32;;
47481;SDS011;33219;47.410;9.730;2023-05-10T16:11:26;2.95;;;1.40;;
47481;SDS011;33219;47.410;9.730;2023-05-10T16:13:54;4.12;;;1.45;;
47481;SDS011;33219;47.410;9.730;2023-05-10T16:16:21;3.25;;;1.57;;
47481;SDS011;33219;47.410;9.730;2023-05-10T16:18:50;4.17;;;1.72;;
47481;SDS011;33219;47.410;9.730;2023-05-10T16:21:18;3.80;;;1.62;;
47481;SDS011;33219;47.410;9.730;2023-05-10T16:23:45;3.83;;;1.70;;
47481;SDS011;33219;47.410;9.730;2023-05-10T16:26:13;2.95;;;1.50;;
47481;SDS011;33219;47.410;9.730;2023-05-10T16:28:41;2.45;;;1.70;;
47481;SDS011;33219;47.410;9.730;2023-05-10T16:31:08;3.70;;;1.70;;
47481;SDS011;33219;47.410;9.730;2023-05-10T16:33:36;7.33;;;1.80;;
47481;SDS011;33219;47.410;9.730;2023-05-10T16:36:03;3.70;;;1.82;;
47481;SDS011;33219;47.410;9.730;2023-05-10T16:38:31;3.72;;;1.80;;
47481;SDS011;33219;47.410;9.730;2023-05-10T16:41:00;2.45;;;1.50;;
47481;SDS011;33219;47.410;9.730;2023-05-10T16:43:28;4.08;;;1.80;;
47481;SDS011;33219;47.410;9.730;2023-05-10T16:45:57;2.98;;;1.70;;
47481;SDS011;33219;47.410;9.730;2023-05-10T16:48:25;4.90;;;1.90;;
47481;SDS011;33219;47.410;9.730;2023-05-10T16:50:52;4.65;;;1.60;;
47481;SDS011;33219;47.410;9.730;2023-05-10T16:53:20;2.67;;;1.40;;
47481;SDS011;33219;47.410;9.730;2023-05-10T16:55:48;2.85;;;1.60;;
47481;SDS011;33219;47.410;9.730;2023-05-10T16:58:15;3.40;;;1.90;;
47481;SDS011;33219;47.410;9.730;2023-05-10T17:00:43;3.70;;;1.90;;
47481;SDS011;33219;47.410;9.730;2023-05-10T17:03:11;3.87;;;1.85;;
47481;SDS011;33219;47.410;9.730;2023-05-10T17:05:39;2.40;;;1.87;;
47481;SDS011;33219;47.410;9.730;2023-05-10T17:08:08;4.25;;;2.02;;
47481;SDS011;33219;47.410;9.730;2023-05-10T17:10:38;4.17;;;1.70;;
47481;SDS011;33219;47.410;9.730;2023-05-10T17:13:07;5.62;;;1.98;;
47481;SDS011;33219;47.410;9.730;2023-05-10T17:15:35;2.92;;;1.70;;
47481;SDS011;33219;47.410;9.730;2023-05-10T17:18:04;3.30;;;1.65;;
47481;SDS011;33219;47.410;9.730;2023-05-10T17:20:32;2.37;;;1.60;;
47481;SDS011;33219;47.410;9.730;2023-05-10T17:23:00;3.27;;;1.50;;
47481;SDS011;33219;47.410;9.730;2023-05-10T17:25:28;2.10;;;1.50;;
47481;SDS011;33219;47.410;9.730;2023-05-10T17:27:55;2.95;;;1.60;;
47481;SDS011;33219;47.410;9.730;2023-05-10T17:30:23;2.55;;;1.70;;
47481;SDS011;33219;47.410;9.730;2023-05-10T17:32:52;3.17;;;1.92;;
47481;SDS011;33219;47.410;9.730;2023-05-10T17:35:20;5.28;;;1.98;;
47481;SDS011;33219;47.410;9.730;2023-05-10T17:37:47;3.02;;;1.82;;
47481;SDS011;33219;47.410;9.730;2023-05-10T17:40:15;3.52;;;2.10;;
47481;SDS011;33219;47.410;9.730;2023-05-10T17:42:43;5.70;;;2.85;;
47481;SDS011;33219;47.410;9.730;2023-05-10T17:45:10;4.97;;;2.77;;
47481;SDS011;33219;47.410;9.730;2023-05-10T17:47:38;5.85;;;3.00;;
47481;SDS011;33219;47.410;9.730;2023-05-10T17:50:05;3.30;;;2.33;;
47481;SDS011;33219;47.410;9.730;2023-05-10T17:52:34;5.72;;;3.20;;
47481;SDS011;33219;47.410;9.730;2023-05-10T17:55:02;4.78;;;3.22;;
47481;SDS011;33219;47.410;9.730;2023-05-10T17:57:30;4.17;;;2.83;;
47481;SDS011;33219;47.410;9.730;2023-05-10T17:59:58;6.62;;;2.95;;
47481;SDS011;33219;47.410;9.730;2023-05-10T18:02:26;3.17;;;2.30;;